logo tempoitalia

Diretta Meteo Mary, Turkmenistanlunedì 31 agosto ore 10:00

Mappa
Sereno 30 °C Sereno 24 Ore: T.min 25 T.max 40
Ponente Nord Km/h 18.5 Punto di rugiada: 13 °C Umidità: 35% Visibilità: 10 Km
Il sole sorge alle: 06:21 Il sole tramonta alle: 19:23
31 Agosto 2026 10:00 tempo osservato: Sereno Sereno 30 35 1011 vento: Nord N 18.5
31 Agosto 2026 09:00 tempo osservato: Sereno Sereno 28 42 1011 vento: Nord N 18.5
31 Agosto 2026 08:00 tempo osservato: Sereno Sereno 26 50 1010 vento: Nord N 14.8
31 Agosto 2026 07:00 tempo osservato: Sereno Sereno 26 47 1010 vento: Nord N/NO 14.8
31 Agosto 2026 06:00 tempo osservato: Sereno Sereno 25 53 1010 vento: Nord N/NO 11.1
31 Agosto 2026 05:00 tempo osservato: Sereno Sereno 27 47 1009 vento: Nord N 11.1
31 Agosto 2026 04:00 tempo osservato: Sereno Sereno 29 42 1009 vento: Nord N/NO 14.8
31 Agosto 2026 03:00 tempo osservato: Sereno Sereno 30 40 1009 vento: Nord NO 18.5
31 Agosto 2026 02:00 tempo osservato: Sereno Sereno 31 43 1009 vento: Nord NO 18.5
31 Agosto 2026 01:00 tempo osservato: Sereno Sereno 31 43 1009 vento: Nord N/NO 18.5
31 Agosto 2026 00:00 tempo osservato: Sereno Sereno 32 40 1008 vento: Nord NO 14.8
30 Agosto 2026 23:00 tempo osservato: Sereno Sereno 33 36 1008 vento: Nord NO 14.8
30 Agosto 2026 22:00 tempo osservato: Sereno Sereno 33 38 1008 vento: Nord NO 14.8
30 Agosto 2026 21:00 tempo osservato: Sereno Sereno 34 34 1007 vento: Nord O/NO 14.8
30 Agosto 2026 18:00 tempo osservato: Sereno Sereno 40 19 1007 vento: Nord NE 14.8
30 Agosto 2026 17:00 tempo osservato: Sereno Sereno 40 19 1007 vento: Nord N 14.8
30 Agosto 2026 16:00 tempo osservato: Sereno Sereno 40 15 1007 vento: Nord N/NO 11.1
30 Agosto 2026 15:00 tempo osservato: Sereno Sereno 39 16 1008 vento: Nord N/NO 18.5
30 Agosto 2026 14:00 tempo osservato: Sereno Sereno 38 19 1008 vento: Nord NO 22.2
30 Agosto 2026 13:00 tempo osservato: Sereno Sereno 37 22 1009 vento: Nord NO 22.2
30 Agosto 2026 12:00 tempo osservato: Sereno Sereno 36 19 1009 vento: Nord O/NO 18.5
30 Agosto 2026 11:00 tempo osservato: Sereno Sereno 35 19 1010 vento: Nord O/NO 18.5